Impacts METAR Board
IDs:

KMIA - Miami Intl, FL, US

Updated at: 2200 UTC 01 Feb 2023
Potential Impact None Slight Moderate High
Time 01/10Z 01/11Z 01/12Z 01/13Z 01/14Z 01/15Z 01/16Z 01/17Z 01/18Z 01/19Z 01/20Z 01/21Z 01/22Z
Temp69 69 71 75 78 79 82 83 84 84 83 82 80
Dewpt67 68 70 71 71 68 68 68 68 68 69 69 68
Altim30.15 30.17 30.18 30.20 30.22 30.24 30.24 30.22 30.20 30.17 30.16 30.15 30.16
VIS10 10 10 10 10 10 10 10 10 10 10 10 10
CIG-- -- -- -- -- 30 -- 31 -- -- -- -- --
CoverFEWFEWSCTFEWSCTBKNSCTBKNSCTSCTSCTFEWFEW
FltCatVFRVFRVFRVFRVFRMVFRVFRVFRVFRVFRVFRVFRVFR
WX--------------------------
WDir00000130110130110130140130140
WSpd0 0 0 0 3 7 9 7 10 9 8 9 8
WGst-- -- -- -- -- -- -- -- -- -- 14 -- --
Raw hourly METARs
KMIA 010953Z 00000KT 10SM FEW025 21/19 A3015 RMK AO2 SLP211 T02060194 $
KMIA 011053Z 00000KT 10SM FEW025 21/20 A3017 RMK AO2 SLP215 T02060200 $
KMIA 011153Z 00000KT 10SM SCT020 22/21 A3018 RMK AO2 SLP221 T02170211 10228 20206 53012 $
KMIA 011253Z 00000KT 10SM FEW021 24/22 A3020 RMK AO2 SLP227 T02390217 $
KMIA 011353Z VRB03KT 10SM SCT023 26/22 A3022 RMK AO2 SLP233 T02560217
KMIA 011453Z 13007KT 10SM SCT023 BKN030 26/20 A3024 RMK AO2 SLP241 T02610200 53020 $
KMIA 011553Z COR 11009KT 10SM SCT027 SCT035 28/20 A3024 RMK AO2 SLP241 T02780200 $
KMIA 011653Z 13007KT 100V180 10SM BKN031 28/20 A3022 RMK AO2 SLP235 T02830200 $
KMIA 011753Z 11010KT 10SM SCT031 29/20 A3020 RMK AO2 SLP226 T02890200 10289 20217 58015 $
KMIA 011853Z 13009KT 10SM SCT033 29/20 A3017 RMK AO2 SLP216 T02890200 $
KMIA 011953Z 14008G14KT 110V170 10SM SCT030 28/21 A3016 RMK AO2 SLP212 T02830206 $
KMIA 012053Z 13009KT 10SM FEW030 28/21 A3015 RMK AO2 SLP211 T02780206 56015 $
KMIA 012153Z 14008KT 10SM FEW030 27/20 A3016 RMK AO2 SLP213 T02670200 $



Page loaded:  22:31 UTC  |   02:31 PM Pacific  |   03:31 PM Mountain  |   04:31 PM Central  |   05:31 PM Eastern

 

ADVISORIES

FORECASTS

FORECASTS

OBSERVATIONS

USER TOOLS

ABOUT US